Terminal Aerodrome Forecast
Issued by NWS Melbourne, FL

Home | Current Version | Previous Version | Text Only | Print | Product List | Glossary On
Versions: 1 2 3 4 5 6 7 8 9 10 11 12 13 14 15 16 17 18 19
000
FTUS42 KMLB 231740
TAFMLB
TAF
KMLB 231740Z 2318/2418 VRB04KT P6SM SCT025 BKN080
     FM232000 04009KT P6SM SCT025 BKN070
     FM240600 35007KT 6SM BR FEW015 BKN020
      TEMPO 2409/2412 2SM BR BKN008
     FM241300 03009KT P6SM SCT008 SCT025
     FM241500 03010KT P6SM FEW250=

USA.gov is the U.S. government's official web portal to all federal, state and local government web resources and services.